sensor_id;sensor_type;location;lat;lon;timestamp;P1;durP1;ratioP1;P2;durP2;ratioP2
13067;SDS011;6600;51.362;6.686;2023-08-20T00:00:50;3.30;;;2.10;;
13067;SDS011;6600;51.362;6.686;2023-08-20T00:03:16;2.63;;;1.90;;
13067;SDS011;6600;51.362;6.686;2023-08-20T00:05:42;2.17;;;1.83;;
13067;SDS011;6600;51.362;6.686;2023-08-20T00:08:07;2.43;;;2.17;;
13067;SDS011;6600;51.362;6.686;2023-08-20T00:10:32;2.53;;;2.10;;
13067;SDS011;6600;51.362;6.686;2023-08-20T00:12:58;2.93;;;2.00;;
13067;SDS011;6600;51.362;6.686;2023-08-20T00:15:24;4.23;;;2.30;;
13067;SDS011;6600;51.362;6.686;2023-08-20T00:17:52;2.00;;;1.80;;
13067;SDS011;6600;51.362;6.686;2023-08-20T00:20:18;2.10;;;1.90;;
13067;SDS011;6600;51.362;6.686;2023-08-20T00:22:44;3.90;;;1.70;;
13067;SDS011;6600;51.362;6.686;2023-08-20T00:25:10;2.03;;;1.83;;
13067;SDS011;6600;51.362;6.686;2023-08-20T00:27:37;2.20;;;1.70;;
13067;SDS011;6600;51.362;6.686;2023-08-20T00:30:03;2.30;;;1.80;;
13067;SDS011;6600;51.362;6.686;2023-08-20T00:32:29;3.87;;;2.00;;
13067;SDS011;6600;51.362;6.686;2023-08-20T00:34:55;2.93;;;2.20;;
13067;SDS011;6600;51.362;6.686;2023-08-20T00:37:21;2.10;;;1.90;;
13067;SDS011;6600;51.362;6.686;2023-08-20T00:39:46;2.30;;;1.83;;
13067;SDS011;6600;51.362;6.686;2023-08-20T00:42:11;3.53;;;2.50;;
13067;SDS011;6600;51.362;6.686;2023-08-20T00:44:39;4.07;;;2.13;;
13067;SDS011;6600;51.362;6.686;2023-08-20T00:47:06;2.47;;;2.27;;
13067;SDS011;6600;51.362;6.686;2023-08-20T00:49:32;2.90;;;2.13;;
13067;SDS011;6600;51.362;6.686;2023-08-20T00:51:58;2.90;;;2.17;;
13067;SDS011;6600;51.362;6.686;2023-08-20T00:54:24;3.77;;;2.17;;
13067;SDS011;6600;51.362;6.686;2023-08-20T00:56:50;2.67;;;2.30;;
13067;SDS011;6600;51.362;6.686;2023-08-20T00:59:16;3.90;;;2.70;;
13067;SDS011;6600;51.362;6.686;2023-08-20T01:01:42;4.13;;;2.77;;
13067;SDS011;6600;51.362;6.686;2023-08-20T01:04:08;4.00;;;2.87;;
13067;SDS011;6600;51.362;6.686;2023-08-20T01:09:23;4.93;;;2.57;;
13067;SDS011;6600;51.362;6.686;2023-08-20T01:12:02;3.07;;;2.40;;
13067;SDS011;6600;51.362;6.686;2023-08-20T01:14:28;6.00;;;3.10;;
13067;SDS011;6600;51.362;6.686;2023-08-20T01:16:54;3.57;;;2.87;;
13067;SDS011;6600;51.362;6.686;2023-08-20T01:19:20;3.50;;;2.53;;
13067;SDS011;6600;51.362;6.686;2023-08-20T01:29:36;3.17;;;2.67;;
13067;SDS011;6600;51.362;6.686;2023-08-20T01:32:02;5.67;;;2.90;;
13067;SDS011;6600;51.362;6.686;2023-08-20T01:34:29;3.27;;;2.60;;
13067;SDS011;6600;51.362;6.686;2023-08-20T01:36:54;3.67;;;3.00;;
13067;SDS011;6600;51.362;6.686;2023-08-20T01:39:20;4.10;;;2.70;;
13067;SDS011;6600;51.362;6.686;2023-08-20T01:41:45;5.00;;;3.30;;
13067;SDS011;6600;51.362;6.686;2023-08-20T01:44:11;4.77;;;3.27;;
13067;SDS011;6600;51.362;6.686;2023-08-20T01:46:36;3.30;;;2.80;;
13067;SDS011;6600;51.362;6.686;2023-08-20T01:49:01;3.87;;;2.63;;
13067;SDS011;6600;51.362;6.686;2023-08-20T01:51:27;3.33;;;2.67;;
13067;SDS011;6600;51.362;6.686;2023-08-20T01:53:53;6.30;;;2.93;;
13067;SDS011;6600;51.362;6.686;2023-08-20T01:56:18;5.67;;;3.47;;
13067;SDS011;6600;51.362;6.686;2023-08-20T01:58:44;2.90;;;2.27;;
13067;SDS011;6600;51.362;6.686;2023-08-20T02:01:09;6.00;;;3.03;;
13067;SDS011;6600;51.362;6.686;2023-08-20T02:03:35;4.97;;;2.70;;
13067;SDS011;6600;51.362;6.686;2023-08-20T02:06:01;2.63;;;2.40;;
13067;SDS011;6600;51.362;6.686;2023-08-20T02:08:27;3.33;;;2.77;;
13067;SDS011;6600;51.362;6.686;2023-08-20T02:10:59;2.87;;;2.53;;
13067;SDS011;6600;51.362;6.686;2023-08-20T02:13:28;2.37;;;2.17;;
13067;SDS011;6600;51.362;6.686;2023-08-20T02:15:58;3.50;;;2.33;;
13067;SDS011;6600;51.362;6.686;2023-08-20T02:18:26;3.23;;;2.30;;
13067;SDS011;6600;51.362;6.686;2023-08-20T02:20:51;5.27;;;3.17;;
13067;SDS011;6600;51.362;6.686;2023-08-20T02:23:17;2.80;;;2.50;;
13067;SDS011;6600;51.362;6.686;2023-08-20T02:25:43;3.90;;;2.87;;
13067;SDS011;6600;51.362;6.686;2023-08-20T02:28:09;4.70;;;3.13;;
13067;SDS011;6600;51.362;6.686;2023-08-20T02:30:39;5.23;;;3.03;;
13067;SDS011;6600;51.362;6.686;2023-08-20T02:33:05;4.60;;;2.60;;
13067;SDS011;6600;51.362;6.686;2023-08-20T02:35:31;3.57;;;3.00;;
13067;SDS011;6600;51.362;6.686;2023-08-20T02:37:56;3.40;;;2.50;;
13067;SDS011;6600;51.362;6.686;2023-08-20T02:40:21;3.80;;;2.50;;
13067;SDS011;6600;51.362;6.686;2023-08-20T02:42:46;3.37;;;2.47;;
13067;SDS011;6600;51.362;6.686;2023-08-20T02:45:12;5.20;;;2.80;;
13067;SDS011;6600;51.362;6.686;2023-08-20T02:47:37;4.70;;;2.40;;
13067;SDS011;6600;51.362;6.686;2023-08-20T02:50:03;6.87;;;3.03;;
13067;SDS011;6600;51.362;6.686;2023-08-20T02:52:29;3.87;;;2.40;;
13067;SDS011;6600;51.362;6.686;2023-08-20T02:54:54;6.50;;;3.00;;
13067;SDS011;6600;51.362;6.686;2023-08-20T02:57:19;4.53;;;2.70;;
13067;SDS011;6600;51.362;6.686;2023-08-20T02:59:45;3.27;;;2.23;;
13067;SDS011;6600;51.362;6.686;2023-08-20T03:02:11;3.93;;;2.73;;
13067;SDS011;6600;51.362;6.686;2023-08-20T03:04:36;3.60;;;2.70;;
13067;SDS011;6600;51.362;6.686;2023-08-20T03:07:01;4.43;;;2.83;;
13067;SDS011;6600;51.362;6.686;2023-08-20T03:09:27;3.70;;;2.60;;
13067;SDS011;6600;51.362;6.686;2023-08-20T03:11:53;4.50;;;2.77;;
13067;SDS011;6600;51.362;6.686;2023-08-20T03:14:18;4.73;;;2.93;;
13067;SDS011;6600;51.362;6.686;2023-08-20T03:16:43;3.67;;;2.87;;
13067;SDS011;6600;51.362;6.686;2023-08-20T03:19:09;5.23;;;2.90;;
13067;SDS011;6600;51.362;6.686;2023-08-20T03:21:34;6.63;;;2.93;;
13067;SDS011;6600;51.362;6.686;2023-08-20T03:23:59;6.20;;;3.07;;
13067;SDS011;6600;51.362;6.686;2023-08-20T03:26:24;3.70;;;2.30;;
13067;SDS011;6600;51.362;6.686;2023-08-20T03:28:50;3.80;;;2.57;;
13067;SDS011;6600;51.362;6.686;2023-08-20T03:31:15;6.00;;;2.77;;
13067;SDS011;6600;51.362;6.686;2023-08-20T03:33:40;4.73;;;2.77;;
13067;SDS011;6600;51.362;6.686;2023-08-20T03:36:06;4.60;;;2.90;;
13067;SDS011;6600;51.362;6.686;2023-08-20T03:38:31;4.10;;;2.63;;
13067;SDS011;6600;51.362;6.686;2023-08-20T03:40:56;4.93;;;3.13;;
13067;SDS011;6600;51.362;6.686;2023-08-20T03:43:22;5.93;;;3.47;;
13067;SDS011;6600;51.362;6.686;2023-08-20T03:45:51;5.57;;;3.40;;
13067;SDS011;6600;51.362;6.686;2023-08-20T03:48:16;3.97;;;3.13;;
13067;SDS011;6600;51.362;6.686;2023-08-20T03:50:42;4.50;;;2.93;;
13067;SDS011;6600;51.362;6.686;2023-08-20T03:53:07;4.43;;;2.67;;
13067;SDS011;6600;51.362;6.686;2023-08-20T03:55:32;3.93;;;3.10;;
13067;SDS011;6600;51.362;6.686;2023-08-20T03:57:57;3.20;;;2.57;;
13067;SDS011;6600;51.362;6.686;2023-08-20T04:00:23;4.40;;;3.03;;
13067;SDS011;6600;51.362;6.686;2023-08-20T04:02:48;3.27;;;2.60;;
13067;SDS011;6600;51.362;6.686;2023-08-20T04:05:13;4.93;;;2.67;;
13067;SDS011;6600;51.362;6.686;2023-08-20T04:07:39;4.03;;;2.97;;
13067;SDS011;6600;51.362;6.686;2023-08-20T04:10:04;4.67;;;2.77;;
13067;SDS011;6600;51.362;6.686;2023-08-20T04:12:30;3.47;;;2.57;;
13067;SDS011;6600;51.362;6.686;2023-08-20T04:14:55;3.70;;;2.97;;
13067;SDS011;6600;51.362;6.686;2023-08-20T04:17:21;4.27;;;3.00;;
13067;SDS011;6600;51.362;6.686;2023-08-20T04:19:46;4.33;;;2.90;;
13067;SDS011;6600;51.362;6.686;2023-08-20T04:22:11;5.07;;;3.30;;
13067;SDS011;6600;51.362;6.686;2023-08-20T04:24:37;5.20;;;2.63;;
13067;SDS011;6600;51.362;6.686;2023-08-20T04:27:02;5.00;;;3.30;;
13067;SDS011;6600;51.362;6.686;2023-08-20T04:29:28;6.23;;;3.30;;
13067;SDS011;6600;51.362;6.686;2023-08-20T04:31:53;3.03;;;2.57;;
13067;SDS011;6600;51.362;6.686;2023-08-20T04:34:18;5.40;;;2.73;;
13067;SDS011;6600;51.362;6.686;2023-08-20T04:36:44;4.87;;;2.90;;
13067;SDS011;6600;51.362;6.686;2023-08-20T04:39:09;4.00;;;2.43;;
13067;SDS011;6600;51.362;6.686;2023-08-20T04:41:35;2.87;;;2.27;;
13067;SDS011;6600;51.362;6.686;2023-08-20T04:44:00;6.43;;;3.27;;
13067;SDS011;6600;51.362;6.686;2023-08-20T04:46:25;5.73;;;3.00;;
13067;SDS011;6600;51.362;6.686;2023-08-20T04:48:51;3.03;;;2.27;;
13067;SDS011;6600;51.362;6.686;2023-08-20T04:51:16;3.20;;;2.47;;
13067;SDS011;6600;51.362;6.686;2023-08-20T04:53:41;3.53;;;2.40;;
13067;SDS011;6600;51.362;6.686;2023-08-20T04:56:06;2.73;;;2.20;;
13067;SDS011;6600;51.362;6.686;2023-08-20T04:58:32;4.83;;;2.70;;
13067;SDS011;6600;51.362;6.686;2023-08-20T05:00:57;5.20;;;3.27;;
13067;SDS011;6600;51.362;6.686;2023-08-20T05:03:22;3.83;;;2.73;;
13067;SDS011;6600;51.362;6.686;2023-08-20T05:05:48;2.87;;;2.60;;
13067;SDS011;6600;51.362;6.686;2023-08-20T05:08:15;5.63;;;3.53;;
13067;SDS011;6600;51.362;6.686;2023-08-20T05:10:40;4.87;;;2.83;;
13067;SDS011;6600;51.362;6.686;2023-08-20T05:13:05;3.07;;;2.70;;
13067;SDS011;6600;51.362;6.686;2023-08-20T05:15:31;2.97;;;2.23;;
13067;SDS011;6600;51.362;6.686;2023-08-20T05:17:56;5.57;;;3.50;;
13067;SDS011;6600;51.362;6.686;2023-08-20T05:20:21;4.37;;;3.50;;
13067;SDS011;6600;51.362;6.686;2023-08-20T05:22:46;4.70;;;3.33;;
13067;SDS011;6600;51.362;6.686;2023-08-20T05:25:12;6.30;;;3.23;;
13067;SDS011;6600;51.362;6.686;2023-08-20T05:27:37;9.30;;;3.90;;
13067;SDS011;6600;51.362;6.686;2023-08-20T05:30:03;3.57;;;3.20;;
13067;SDS011;6600;51.362;6.686;2023-08-20T05:32:28;4.93;;;3.10;;
13067;SDS011;6600;51.362;6.686;2023-08-20T05:34:53;6.27;;;3.30;;
13067;SDS011;6600;51.362;6.686;2023-08-20T05:37:19;7.43;;;4.33;;
13067;SDS011;6600;51.362;6.686;2023-08-20T05:39:44;6.83;;;3.97;;
13067;SDS011;6600;51.362;6.686;2023-08-20T05:42:10;6.57;;;3.33;;
13067;SDS011;6600;51.362;6.686;2023-08-20T05:44:35;5.80;;;3.70;;
13067;SDS011;6600;51.362;6.686;2023-08-20T05:47:01;8.67;;;4.17;;
13067;SDS011;6600;51.362;6.686;2023-08-20T05:49:26;7.13;;;3.57;;
13067;SDS011;6600;51.362;6.686;2023-08-20T05:51:52;7.13;;;4.53;;
13067;SDS011;6600;51.362;6.686;2023-08-20T05:54:17;5.83;;;3.47;;
13067;SDS011;6600;51.362;6.686;2023-08-20T05:56:43;5.60;;;3.47;;
13067;SDS011;6600;51.362;6.686;2023-08-20T05:59:08;5.87;;;3.53;;
13067;SDS011;6600;51.362;6.686;2023-08-20T06:01:33;6.07;;;3.50;;
13067;SDS011;6600;51.362;6.686;2023-08-20T06:03:59;6.37;;;4.00;;
13067;SDS011;6600;51.362;6.686;2023-08-20T06:06:25;7.20;;;4.20;;
13067;SDS011;6600;51.362;6.686;2023-08-20T06:08:51;6.77;;;3.40;;
13067;SDS011;6600;51.362;6.686;2023-08-20T06:11:16;6.63;;;3.97;;
13067;SDS011;6600;51.362;6.686;2023-08-20T06:13:41;5.60;;;3.70;;
13067;SDS011;6600;51.362;6.686;2023-08-20T06:16:07;5.83;;;4.30;;
13067;SDS011;6600;51.362;6.686;2023-08-20T06:18:32;6.27;;;4.00;;
13067;SDS011;6600;51.362;6.686;2023-08-20T06:20:58;5.73;;;4.20;;
13067;SDS011;6600;51.362;6.686;2023-08-20T06:23:23;6.23;;;3.97;;
13067;SDS011;6600;51.362;6.686;2023-08-20T06:25:50;4.43;;;3.53;;
13067;SDS011;6600;51.362;6.686;2023-08-20T06:28:15;3.77;;;3.37;;
13067;SDS011;6600;51.362;6.686;2023-08-20T06:30:41;4.40;;;3.20;;
13067;SDS011;6600;51.362;6.686;2023-08-20T06:33:07;6.03;;;3.20;;
13067;SDS011;6600;51.362;6.686;2023-08-20T06:35:33;5.20;;;3.47;;
13067;SDS011;6600;51.362;6.686;2023-08-20T06:37:59;7.63;;;4.07;;
13067;SDS011;6600;51.362;6.686;2023-08-20T06:40:24;4.97;;;3.63;;
13067;SDS011;6600;51.362;6.686;2023-08-20T06:42:49;5.10;;;3.67;;
13067;SDS011;6600;51.362;6.686;2023-08-20T06:45:15;8.27;;;4.67;;
13067;SDS011;6600;51.362;6.686;2023-08-20T06:47:40;6.17;;;4.13;;
13067;SDS011;6600;51.362;6.686;2023-08-20T06:50:05;7.07;;;4.33;;
13067;SDS011;6600;51.362;6.686;2023-08-20T06:52:31;7.43;;;4.87;;
13067;SDS011;6600;51.362;6.686;2023-08-20T06:54:56;8.67;;;4.10;;
13067;SDS011;6600;51.362;6.686;2023-08-20T06:57:22;8.27;;;4.60;;
13067;SDS011;6600;51.362;6.686;2023-08-20T06:59:47;5.63;;;4.03;;
13067;SDS011;6600;51.362;6.686;2023-08-20T07:02:13;6.97;;;4.20;;
13067;SDS011;6600;51.362;6.686;2023-08-20T07:04:38;9.63;;;5.40;;
13067;SDS011;6600;51.362;6.686;2023-08-20T07:07:04;9.50;;;4.90;;
13067;SDS011;6600;51.362;6.686;2023-08-20T07:09:33;8.37;;;5.30;;
13067;SDS011;6600;51.362;6.686;2023-08-20T07:11:58;8.60;;;5.13;;
13067;SDS011;6600;51.362;6.686;2023-08-20T07:14:23;10.17;;;6.77;;
13067;SDS011;6600;51.362;6.686;2023-08-20T07:16:49;8.67;;;5.03;;
13067;SDS011;6600;51.362;6.686;2023-08-20T07:19:14;9.70;;;5.50;;
13067;SDS011;6600;51.362;6.686;2023-08-20T07:21:40;10.27;;;6.87;;
13067;SDS011;6600;51.362;6.686;2023-08-20T07:24:05;11.10;;;6.33;;
13067;SDS011;6600;51.362;6.686;2023-08-20T07:26:31;8.80;;;5.50;;
13067;SDS011;6600;51.362;6.686;2023-08-20T07:28:56;11.90;;;6.70;;
13067;SDS011;6600;51.362;6.686;2023-08-20T07:31:22;10.23;;;5.43;;
13067;SDS011;6600;51.362;6.686;2023-08-20T07:33:48;9.10;;;5.27;;
13067;SDS011;6600;51.362;6.686;2023-08-20T07:36:17;9.90;;;5.67;;
13067;SDS011;6600;51.362;6.686;2023-08-20T07:38:43;8.17;;;5.60;;
13067;SDS011;6600;51.362;6.686;2023-08-20T07:41:09;9.17;;;5.27;;
13067;SDS011;6600;51.362;6.686;2023-08-20T07:43:36;10.50;;;5.47;;
13067;SDS011;6600;51.362;6.686;2023-08-20T07:46:03;9.37;;;4.93;;
13067;SDS011;6600;51.362;6.686;2023-08-20T07:48:29;8.03;;;5.37;;
13067;SDS011;6600;51.362;6.686;2023-08-20T07:50:55;9.27;;;6.17;;
13067;SDS011;6600;51.362;6.686;2023-08-20T07:53:20;8.33;;;5.40;;
13067;SDS011;6600;51.362;6.686;2023-08-20T07:55:45;9.73;;;5.87;;
13067;SDS011;6600;51.362;6.686;2023-08-20T07:58:10;8.17;;;5.40;;
13067;SDS011;6600;51.362;6.686;2023-08-20T08:00:36;11.17;;;5.70;;
13067;SDS011;6600;51.362;6.686;2023-08-20T08:03:01;10.77;;;5.57;;
13067;SDS011;6600;51.362;6.686;2023-08-20T08:05:27;8.07;;;5.13;;
13067;SDS011;6600;51.362;6.686;2023-08-20T08:07:53;7.67;;;4.60;;
13067;SDS011;6600;51.362;6.686;2023-08-20T08:10:18;7.77;;;5.17;;
13067;SDS011;6600;51.362;6.686;2023-08-20T08:12:44;9.03;;;5.27;;
13067;SDS011;6600;51.362;6.686;2023-08-20T08:15:09;7.20;;;5.60;;
13067;SDS011;6600;51.362;6.686;2023-08-20T08:17:35;10.93;;;5.83;;
13067;SDS011;6600;51.362;6.686;2023-08-20T08:20:00;7.00;;;5.47;;
13067;SDS011;6600;51.362;6.686;2023-08-20T08:22:25;12.20;;;6.47;;
13067;SDS011;6600;51.362;6.686;2023-08-20T08:24:51;9.57;;;6.10;;
13067;SDS011;6600;51.362;6.686;2023-08-20T08:27:16;8.47;;;5.67;;
13067;SDS011;6600;51.362;6.686;2023-08-20T08:29:41;11.37;;;5.90;;
13067;SDS011;6600;51.362;6.686;2023-08-20T08:32:06;10.97;;;6.40;;
13067;SDS011;6600;51.362;6.686;2023-08-20T08:34:32;13.17;;;6.70;;
13067;SDS011;6600;51.362;6.686;2023-08-20T08:36:57;8.40;;;5.40;;
13067;SDS011;6600;51.362;6.686;2023-08-20T08:39:22;7.10;;;4.50;;
13067;SDS011;6600;51.362;6.686;2023-08-20T08:41:49;8.57;;;5.27;;
13067;SDS011;6600;51.362;6.686;2023-08-20T08:44:16;7.50;;;5.30;;
13067;SDS011;6600;51.362;6.686;2023-08-20T08:46:41;7.40;;;4.93;;
13067;SDS011;6600;51.362;6.686;2023-08-20T08:49:07;9.47;;;5.80;;
13067;SDS011;6600;51.362;6.686;2023-08-20T08:51:33;5.87;;;4.10;;
13067;SDS011;6600;51.362;6.686;2023-08-20T08:53:59;7.70;;;5.77;;
13067;SDS011;6600;51.362;6.686;2023-08-20T08:56:26;6.10;;;4.73;;
13067;SDS011;6600;51.362;6.686;2023-08-20T08:58:52;3.90;;;3.40;;
13067;SDS011;6600;51.362;6.686;2023-08-20T09:01:17;5.83;;;4.23;;
13067;SDS011;6600;51.362;6.686;2023-08-20T09:03:43;6.20;;;3.57;;
13067;SDS011;6600;51.362;6.686;2023-08-20T09:06:08;4.90;;;3.53;;
13067;SDS011;6600;51.362;6.686;2023-08-20T09:08:35;3.20;;;2.40;;
13067;SDS011;6600;51.362;6.686;2023-08-20T09:11:01;4.67;;;2.97;;
13067;SDS011;6600;51.362;6.686;2023-08-20T09:13:37;3.17;;;2.63;;
13067;SDS011;6600;51.362;6.686;2023-08-20T09:16:07;2.60;;;2.40;;
13067;SDS011;6600;51.362;6.686;2023-08-20T09:18:41;2.77;;;2.23;;
13067;SDS011;6600;51.362;6.686;2023-08-20T09:21:09;4.57;;;3.20;;
13067;SDS011;6600;51.362;6.686;2023-08-20T09:23:35;6.23;;;4.20;;
13067;SDS011;6600;51.362;6.686;2023-08-20T09:26:02;5.47;;;3.70;;
13067;SDS011;6600;51.362;6.686;2023-08-20T09:28:28;6.03;;;4.60;;
13067;SDS011;6600;51.362;6.686;2023-08-20T09:30:57;5.80;;;3.70;;
13067;SDS011;6600;51.362;6.686;2023-08-20T09:33:23;6.23;;;3.87;;
13067;SDS011;6600;51.362;6.686;2023-08-20T09:35:49;5.73;;;4.30;;
13067;SDS011;6600;51.362;6.686;2023-08-20T09:38:16;7.00;;;4.43;;
13067;SDS011;6600;51.362;6.686;2023-08-20T09:40:45;6.27;;;4.77;;
13067;SDS011;6600;51.362;6.686;2023-08-20T09:43:13;4.07;;;3.47;;
13067;SDS011;6600;51.362;6.686;2023-08-20T09:45:41;7.97;;;4.80;;
13067;SDS011;6600;51.362;6.686;2023-08-20T09:48:07;5.83;;;4.00;;
13067;SDS011;6600;51.362;6.686;2023-08-20T09:50:35;4.77;;;4.10;;
13067;SDS011;6600;51.362;6.686;2023-08-20T09:53:09;5.30;;;4.37;;
13067;SDS011;6600;51.362;6.686;2023-08-20T09:55:42;5.87;;;4.53;;
13067;SDS011;6600;51.362;6.686;2023-08-20T09:58:09;5.43;;;4.20;;
13067;SDS011;6600;51.362;6.686;2023-08-20T10:00:35;7.30;;;5.00;;
13067;SDS011;6600;51.362;6.686;2023-08-20T10:03:01;9.13;;;5.30;;
13067;SDS011;6600;51.362;6.686;2023-08-20T10:05:27;5.07;;;4.13;;
13067;SDS011;6600;51.362;6.686;2023-08-20T10:07:54;8.23;;;5.57;;
13067;SDS011;6600;51.362;6.686;2023-08-20T10:10:20;8.27;;;5.37;;
13067;SDS011;6600;51.362;6.686;2023-08-20T10:12:46;7.90;;;5.70;;
13067;SDS011;6600;51.362;6.686;2023-08-20T10:15:13;8.60;;;6.07;;
13067;SDS011;6600;51.362;6.686;2023-08-20T10:17:40;9.03;;;6.10;;
13067;SDS011;6600;51.362;6.686;2023-08-20T10:20:07;9.57;;;5.80;;
13067;SDS011;6600;51.362;6.686;2023-08-20T10:22:37;7.27;;;5.53;;
13067;SDS011;6600;51.362;6.686;2023-08-20T10:25:04;8.60;;;6.37;;
13067;SDS011;6600;51.362;6.686;2023-08-20T10:27:35;6.17;;;5.30;;
13067;SDS011;6600;51.362;6.686;2023-08-20T10:30:16;5.93;;;5.17;;
13067;SDS011;6600;51.362;6.686;2023-08-20T10:32:43;6.50;;;4.77;;
13067;SDS011;6600;51.362;6.686;2023-08-20T10:35:09;5.40;;;4.77;;
13067;SDS011;6600;51.362;6.686;2023-08-20T10:37:34;5.53;;;4.93;;
13067;SDS011;6600;51.362;6.686;2023-08-20T10:40:02;5.33;;;4.20;;
13067;SDS011;6600;51.362;6.686;2023-08-20T10:42:29;4.40;;;4.00;;
13067;SDS011;6600;51.362;6.686;2023-08-20T10:47:42;6.77;;;4.63;;
13067;SDS011;6600;51.362;6.686;2023-08-20T10:50:11;5.70;;;4.27;;
13067;SDS011;6600;51.362;6.686;2023-08-20T10:52:40;6.23;;;3.90;;
13067;SDS011;6600;51.362;6.686;2023-08-20T10:55:09;4.03;;;3.63;;
13067;SDS011;6600;51.362;6.686;2023-08-20T10:57:35;5.93;;;3.83;;
13067;SDS011;6600;51.362;6.686;2023-08-20T11:00:04;3.93;;;3.33;;
13067;SDS011;6600;51.362;6.686;2023-08-20T11:02:35;3.20;;;2.90;;
13067;SDS011;6600;51.362;6.686;2023-08-20T11:05:02;3.50;;;3.20;;
13067;SDS011;6600;51.362;6.686;2023-08-20T11:07:29;4.03;;;3.40;;
13067;SDS011;6600;51.362;6.686;2023-08-20T11:09:56;4.87;;;3.03;;
13067;SDS011;6600;51.362;6.686;2023-08-20T11:12:22;3.00;;;2.63;;
13067;SDS011;6600;51.362;6.686;2023-08-20T11:14:48;2.50;;;2.30;;
13067;SDS011;6600;51.362;6.686;2023-08-20T11:17:13;2.40;;;2.20;;
13067;SDS011;6600;51.362;6.686;2023-08-20T11:19:39;3.67;;;2.47;;
13067;SDS011;6600;51.362;6.686;2023-08-20T11:22:05;4.70;;;3.00;;
13067;SDS011;6600;51.362;6.686;2023-08-20T11:24:30;5.10;;;2.70;;
13067;SDS011;6600;51.362;6.686;2023-08-20T11:26:55;3.23;;;2.30;;
13067;SDS011;6600;51.362;6.686;2023-08-20T11:29:21;2.10;;;1.97;;
13067;SDS011;6600;51.362;6.686;2023-08-20T11:31:47;3.57;;;2.70;;
13067;SDS011;6600;51.362;6.686;2023-08-20T11:34:13;2.33;;;2.13;;
13067;SDS011;6600;51.362;6.686;2023-08-20T11:36:39;2.20;;;2.03;;
13067;SDS011;6600;51.362;6.686;2023-08-20T11:39:05;2.90;;;2.23;;
13067;SDS011;6600;51.362;6.686;2023-08-20T11:41:31;3.13;;;2.40;;
13067;SDS011;6600;51.362;6.686;2023-08-20T11:43:56;3.90;;;2.50;;
13067;SDS011;6600;51.362;6.686;2023-08-20T11:46:22;2.90;;;2.60;;
13067;SDS011;6600;51.362;6.686;2023-08-20T11:49:02;2.63;;;2.43;;
13067;SDS011;6600;51.362;6.686;2023-08-20T11:51:29;2.90;;;2.23;;
13067;SDS011;6600;51.362;6.686;2023-08-20T11:53:59;3.43;;;2.50;;
13067;SDS011;6600;51.362;6.686;2023-08-20T11:56:26;2.40;;;2.20;;
13067;SDS011;6600;51.362;6.686;2023-08-20T11:58:52;3.17;;;2.53;;
13067;SDS011;6600;51.362;6.686;2023-08-20T12:01:20;3.33;;;3.03;;
13067;SDS011;6600;51.362;6.686;2023-08-20T12:03:46;3.43;;;3.13;;
13067;SDS011;6600;51.362;6.686;2023-08-20T12:06:18;4.27;;;2.30;;
13067;SDS011;6600;51.362;6.686;2023-08-20T12:08:48;2.80;;;2.50;;
13067;SDS011;6600;51.362;6.686;2023-08-20T12:11:13;2.33;;;2.13;;
13067;SDS011;6600;51.362;6.686;2023-08-20T12:13:39;2.60;;;2.30;;
13067;SDS011;6600;51.362;6.686;2023-08-20T12:16:05;2.17;;;1.97;;
13067;SDS011;6600;51.362;6.686;2023-08-20T12:18:31;3.57;;;2.13;;
13067;SDS011;6600;51.362;6.686;2023-08-20T12:20:56;3.97;;;2.30;;
13067;SDS011;6600;51.362;6.686;2023-08-20T12:23:21;2.77;;;2.10;;
13067;SDS011;6600;51.362;6.686;2023-08-20T12:25:51;2.87;;;2.10;;
13067;SDS011;6600;51.362;6.686;2023-08-20T12:28:16;1.63;;;1.50;;
13067;SDS011;6600;51.362;6.686;2023-08-20T12:30:42;2.83;;;2.00;;
13067;SDS011;6600;51.362;6.686;2023-08-20T12:33:08;2.53;;;2.13;;
13067;SDS011;6600;51.362;6.686;2023-08-20T12:35:34;3.90;;;2.17;;
13067;SDS011;6600;51.362;6.686;2023-08-20T12:38:00;2.67;;;1.97;;
13067;SDS011;6600;51.362;6.686;2023-08-20T12:40:25;2.10;;;1.83;;
13067;SDS011;6600;51.362;6.686;2023-08-20T12:42:50;2.37;;;2.10;;
13067;SDS011;6600;51.362;6.686;2023-08-20T12:45:16;2.67;;;2.07;;
13067;SDS011;6600;51.362;6.686;2023-08-20T12:47:41;2.33;;;2.13;;
13067;SDS011;6600;51.362;6.686;2023-08-20T12:50:07;2.10;;;1.90;;
13067;SDS011;6600;51.362;6.686;2023-08-20T12:52:32;1.80;;;1.70;;
13067;SDS011;6600;51.362;6.686;2023-08-20T12:54:58;1.80;;;1.70;;
13067;SDS011;6600;51.362;6.686;2023-08-20T12:57:23;2.40;;;1.93;;
13067;SDS011;6600;51.362;6.686;2023-08-20T12:59:49;2.23;;;1.60;;
13067;SDS011;6600;51.362;6.686;2023-08-20T13:02:14;1.90;;;1.60;;
13067;SDS011;6600;51.362;6.686;2023-08-20T13:04:40;2.77;;;1.90;;
13067;SDS011;6600;51.362;6.686;2023-08-20T13:07:06;2.70;;;1.70;;
13067;SDS011;6600;51.362;6.686;2023-08-20T13:09:32;1.93;;;1.53;;
13067;SDS011;6600;51.362;6.686;2023-08-20T13:11:57;2.10;;;1.53;;
13067;SDS011;6600;51.362;6.686;2023-08-20T13:14:26;2.27;;;2.03;;
13067;SDS011;6600;51.362;6.686;2023-08-20T13:16:51;2.67;;;1.80;;
13067;SDS011;6600;51.362;6.686;2023-08-20T13:19:17;2.60;;;2.40;;
13067;SDS011;6600;51.362;6.686;2023-08-20T13:21:42;3.20;;;1.70;;
13067;SDS011;6600;51.362;6.686;2023-08-20T13:24:07;1.93;;;1.50;;
13067;SDS011;6600;51.362;6.686;2023-08-20T13:26:34;1.60;;;1.50;;
13067;SDS011;6600;51.362;6.686;2023-08-20T13:28:59;2.13;;;1.67;;
13067;SDS011;6600;51.362;6.686;2023-08-20T13:31:24;2.90;;;1.80;;
13067;SDS011;6600;51.362;6.686;2023-08-20T13:33:50;1.70;;;1.60;;
13067;SDS011;6600;51.362;6.686;2023-08-20T13:36:16;1.83;;;1.40;;
13067;SDS011;6600;51.362;6.686;2023-08-20T13:38:41;1.67;;;1.50;;
13067;SDS011;6600;51.362;6.686;2023-08-20T13:41:07;1.50;;;1.33;;
13067;SDS011;6600;51.362;6.686;2023-08-20T13:43:32;1.43;;;1.33;;
13067;SDS011;6600;51.362;6.686;2023-08-20T13:45:57;1.77;;;1.20;;
13067;SDS011;6600;51.362;6.686;2023-08-20T13:48:23;3.83;;;1.60;;
13067;SDS011;6600;51.362;6.686;2023-08-20T13:50:48;2.00;;;1.40;;
13067;SDS011;6600;51.362;6.686;2023-08-20T13:53:14;2.90;;;1.67;;
13067;SDS011;6600;51.362;6.686;2023-08-20T13:55:39;2.13;;;1.77;;
13067;SDS011;6600;51.362;6.686;2023-08-20T13:58:04;1.57;;;1.30;;
13067;SDS011;6600;51.362;6.686;2023-08-20T14:00:30;1.80;;;1.70;;
13067;SDS011;6600;51.362;6.686;2023-08-20T14:02:55;1.33;;;1.20;;
13067;SDS011;6600;51.362;6.686;2023-08-20T14:05:20;2.30;;;1.33;;
13067;SDS011;6600;51.362;6.686;2023-08-20T14:07:45;2.87;;;1.30;;
13067;SDS011;6600;51.362;6.686;2023-08-20T14:10:11;2.27;;;1.20;;
13067;SDS011;6600;51.362;6.686;2023-08-20T14:12:36;1.40;;;1.30;;
13067;SDS011;6600;51.362;6.686;2023-08-20T14:15:02;1.20;;;1.10;;
13067;SDS011;6600;51.362;6.686;2023-08-20T14:17:28;1.80;;;1.43;;
13067;SDS011;6600;51.362;6.686;2023-08-20T14:19:53;2.67;;;1.80;;
13067;SDS011;6600;51.362;6.686;2023-08-20T14:22:19;1.77;;;1.47;;
13067;SDS011;6600;51.362;6.686;2023-08-20T14:24:44;1.50;;;1.37;;
13067;SDS011;6600;51.362;6.686;2023-08-20T14:27:09;3.00;;;1.30;;
13067;SDS011;6600;51.362;6.686;2023-08-20T14:29:35;2.47;;;1.40;;
13067;SDS011;6600;51.362;6.686;2023-08-20T14:32:01;2.20;;;1.70;;
13067;SDS011;6600;51.362;6.686;2023-08-20T14:34:26;1.07;;;1.07;;
13067;SDS011;6600;51.362;6.686;2023-08-20T14:36:51;1.10;;;0.97;;
13067;SDS011;6600;51.362;6.686;2023-08-20T14:39:17;1.67;;;1.37;;
13067;SDS011;6600;51.362;6.686;2023-08-20T14:41:42;2.17;;;1.13;;
13067;SDS011;6600;51.362;6.686;2023-08-20T14:44:07;4.07;;;1.47;;
13067;SDS011;6600;51.362;6.686;2023-08-20T14:46:32;2.60;;;1.30;;
13067;SDS011;6600;51.362;6.686;2023-08-20T14:48:58;2.53;;;1.30;;
13067;SDS011;6600;51.362;6.686;2023-08-20T14:51:23;1.17;;;1.17;;
13067;SDS011;6600;51.362;6.686;2023-08-20T14:53:48;1.33;;;1.13;;
13067;SDS011;6600;51.362;6.686;2023-08-20T14:56:14;1.30;;;1.20;;
13067;SDS011;6600;51.362;6.686;2023-08-20T14:58:39;1.20;;;1.10;;
13067;SDS011;6600;51.362;6.686;2023-08-20T15:01:04;1.30;;;1.17;;
13067;SDS011;6600;51.362;6.686;2023-08-20T15:03:30;0.80;;;0.80;;
13067;SDS011;6600;51.362;6.686;2023-08-20T15:05:55;1.60;;;1.10;;